Time;durP1;ratioP1;P1;durP2;ratioP2;P2;SDS_P1;SDS_P2;PMS_P1;PMS_P2;Temp;Humidity;BMP_temperature;BMP_pressure;BME280_temperature;BME280_humidity;BME280_pressure;Samples;Min_cycle;Max_cycle;Signal;HPM_P1;HPM_P2
2024/04/04 00:01:09;;;;;;;5.35;0.80;;;;;;;9.38;100.00;100154.84;6183447;23;20024;-73
2024/04/04 00:03:36;;;;;;;1.33;0.57;;;;;;;9.35;100.00;100161.50;6190219;23;20024;-73
2024/04/04 00:06:04;;;;;;;2.22;0.75;;;;;;;9.29;100.00;100163.72;6198034;23;20029;-73
2024/04/04 00:08:32;;;;;;;2.10;0.75;;;;;;;9.25;100.00;100157.84;6177988;23;20028;-74
2024/04/04 00:11:09;;;;;;;1.17;0.60;;;;;;;9.28;100.00;100153.22;6203761;23;20051;-73
2024/04/04 00:13:37;;;;;;;2.20;0.80;;;;;;;9.23;100.00;100163.19;6187471;23;20024;-74
2024/04/04 00:16:05;;;;;;;2.60;0.73;;;;;;;9.19;100.00;100157.28;6181501;23;20047;-74
2024/04/04 00:18:33;;;;;;;3.55;0.60;;;;;;;9.13;100.00;100148.47;6181541;23;20078;-73
2024/04/04 00:20:59;;;;;;;1.83;0.68;;;;;;;9.09;100.00;100148.09;6180363;23;20028;-74
2024/04/04 00:23:27;;;;;;;1.63;0.70;;;;;;;9.05;100.00;100137.41;6182099;23;20037;-74
2024/04/04 00:25:53;;;;;;;2.03;0.68;;;;;;;8.97;100.00;100142.19;6181893;23;20024;-74
2024/04/04 00:28:21;;;;;;;2.15;0.90;;;;;;;8.91;100.00;100144.44;6181844;23;20052;-73
2024/04/04 00:30:49;;;;;;;10.55;0.90;;;;;;;8.81;100.00;100135.94;6181385;23;20379;-73
2024/04/04 00:33:18;;;;;;;7.07;0.90;;;;;;;8.78;100.00;100132.25;6181265;23;20502;-73
2024/04/04 00:35:45;;;;;;;1.25;0.60;;;;;;;8.68;100.00;100136.13;6182052;23;20649;-74
2024/04/04 00:38:12;;;;;;;2.83;1.40;;;;;;;8.66;100.00;100133.94;6181864;23;20032;-74
2024/04/04 00:40:39;;;;;;;2.20;0.70;;;;;;;8.58;100.00;100138.69;6181077;23;20394;-73
2024/04/04 00:43:07;;;;;;;2.05;0.70;;;;;;;8.52;100.00;100149.94;6180362;23;20013;-73
2024/04/04 00:45:34;;;;;;;4.60;0.98;;;;;;;8.43;100.00;100144.97;6181107;23;20114;-73
2024/04/04 00:48:01;;;;;;;2.80;0.82;;;;;;;8.36;100.00;100143.66;6180628;23;20020;-74
2024/04/04 00:50:29;;;;;;;3.03;0.88;;;;;;;8.27;100.00;100146.22;6181176;23;20055;-73
2024/04/04 00:52:57;;;;;;;1.73;1.00;;;;;;;8.22;100.00;100145.09;6206204;23;20078;-72
2024/04/04 00:55:24;;;;;;;4.38;0.90;;;;;;;8.21;100.00;100138.09;6181253;23;20032;-72
2024/04/04 00:57:55;;;;;;;3.17;1.05;;;;;;;8.21;100.00;100140.13;6180492;23;20020;-75
2024/04/04 01:00:23;;;;;;;2.13;0.95;;;;;;;8.23;100.00;100137.53;6181896;23;20464;-73
2024/04/04 01:02:51;;;;;;;3.13;1.30;;;;;;;8.28;100.00;100136.63;6157505;23;20021;-74
2024/04/04 01:05:18;;;;;;;1.55;0.60;;;;;;;8.29;100.00;100140.88;6178313;23;20471;-73
2024/04/04 01:07:48;;;;;;;2.40;0.95;;;;;;;8.35;100.00;100133.88;6177586;23;20646;-73
2024/04/04 01:10:15;;;;;;;2.15;0.85;;;;;;;8.43;100.00;100135.94;6177125;23;20036;-73
2024/04/04 01:12:43;;;;;;;2.90;1.40;;;;;;;8.50;100.00;100138.69;6176744;23;20032;-73
2024/04/04 01:15:10;;;;;;;2.63;0.88;;;;;;;8.58;100.00;100133.16;6177030;23;20034;-73
2024/04/04 01:17:38;;;;;;;5.57;0.70;;;;;;;8.68;100.00;100139.66;6202136;23;20025;-73
2024/04/04 01:20:05;;;;;;;3.25;0.63;;;;;;;8.80;100.00;100140.00;6177483;23;20534;-74
2024/04/04 01:22:33;;;;;;;2.92;1.35;;;;;;;8.94;100.00;100135.00;6177670;23;20021;-73
2024/04/04 01:25:01;;;;;;;2.13;0.82;;;;;;;9.13;100.00;100132.59;6194427;23;20029;-73
2024/04/04 01:27:28;;;;;;;2.45;0.85;;;;;;;9.21;100.00;100127.75;6207382;23;20035;-72
2024/04/04 01:29:55;;;;;;;3.63;1.08;;;;;;;9.35;100.00;100130.31;6207776;23;20009;-72
2024/04/04 01:32:22;;;;;;;2.33;0.80;;;;;;;9.47;100.00;100129.34;6231399;23;20032;-73
2024/04/04 01:34:48;;;;;;;2.25;1.15;;;;;;;9.50;100.00;100126.75;6205188;23;20013;-72
2024/04/04 01:37:15;;;;;;;2.60;1.40;;;;;;;9.53;100.00;100136.72;6189856;23;20348;-73
2024/04/04 01:39:42;;;;;;;4.20;1.38;;;;;;;9.60;100.00;100128.38;6178964;23;20055;-73
2024/04/04 01:42:13;;;;;;;5.90;1.42;;;;;;;9.71;100.00;100126.47;6178590;23;20055;-74
2024/04/04 01:44:39;;;;;;;3.10;1.27;;;;;;;9.77;100.00;100116.66;6204573;23;20029;-74
2024/04/04 01:47:07;;;;;;;2.63;1.10;;;;;;;9.83;100.00;100130.31;6178036;23;20383;-73
2024/04/04 01:49:34;;;;;;;2.67;1.23;;;;;;;9.92;100.00;100115.13;6177877;23;20510;-74
2024/04/04 01:52:01;;;;;;;2.97;1.00;;;;;;;9.97;100.00;100125.25;6203426;23;20060;-73
2024/04/04 01:54:29;;;;;;;4.72;1.73;;;;;;;9.99;100.00;100123.41;6178349;23;20475;-73
2024/04/04 01:56:56;;;;;;;4.22;1.17;;;;;;;10.03;100.00;100125.75;6178155;23;20132;-74
2024/04/04 01:59:24;;;;;;;1.48;0.80;;;;;;;10.06;100.00;100130.19;6178260;23;20025;-73
2024/04/04 02:01:52;;;;;;;2.70;1.08;;;;;;;10.11;100.00;100123.66;6178006;23;20071;-73
2024/04/04 02:04:19;;;;;;;4.40;1.30;;;;;;;10.14;100.00;100114.25;6178168;23;20029;-73
2024/04/04 02:06:46;;;;;;;3.25;1.52;;;;;;;10.15;100.00;100107.38;6203095;23;20029;-74
2024/04/04 02:09:13;;;;;;;2.63;0.90;;;;;;;10.15;100.00;100106.66;6203111;23;20029;-74
2024/04/04 02:11:42;;;;;;;2.08;1.05;;;;;;;10.20;100.00;100106.44;6178009;23;20029;-73
2024/04/04 02:14:09;;;;;;;3.23;1.20;;;;;;;10.22;100.00;100100.34;6178311;23;20028;-74
2024/04/04 02:16:39;;;;;;;1.85;1.10;;;;;;;10.29;100.00;100089.22;6202088;23;20730;-74
2024/04/04 02:19:06;;;;;;;7.53;0.73;;;;;;;10.26;100.00;100089.56;6178356;23;20029;-73
2024/04/04 02:21:33;;;;;;;2.63;1.33;;;;;;;10.26;100.00;100093.09;6176889;23;20029;-74
2024/04/04 02:24:00;;;;;;;4.35;1.52;;;;;;;10.32;100.00;100087.34;6198569;23;20079;-73
2024/04/04 02:26:27;;;;;;;2.30;0.90;;;;;;;10.35;100.00;100077.16;6179379;23;20040;-74
2024/04/04 02:28:54;;;;;;;1.52;0.75;;;;;;;10.43;100.00;100080.59;6219820;23;20025;-73
2024/04/04 02:31:22;;;;;;;1.25;0.75;;;;;;;10.47;100.00;100075.38;6226988;23;20029;-73
2024/04/04 02:33:50;;;;;;;3.67;1.08;;;;;;;10.46;100.00;100073.91;6196533;23;20068;-73
2024/04/04 02:36:17;;;;;;;1.20;0.60;;;;;;;10.49;100.00;100064.47;6186232;23;20394;-74
2024/04/04 02:38:44;;;;;;;1.55;0.80;;;;;;;10.56;100.00;100072.00;6178162;23;20099;-74
2024/04/04 02:41:11;;;;;;;3.65;0.70;;;;;;;10.59;100.00;100059.00;6176928;23;20463;-73
2024/04/04 02:43:37;;;;;;;3.85;0.90;;;;;;;10.57;100.00;100062.34;6202234;23;20024;-74
2024/04/04 02:46:06;;;;;;;1.92;0.90;;;;;;;10.58;100.00;100055.47;6152276;23;20025;-73
2024/04/04 02:48:32;;;;;;;3.40;0.70;;;;;;;10.61;100.00;100057.16;6177384;23;20025;-74
2024/04/04 02:51:01;;;;;;;4.22;0.88;;;;;;;10.75;100.00;100052.00;6202684;23;20063;-73
2024/04/04 02:53:29;;;;;;;0.85;0.40;;;;;;;10.70;100.00;100039.84;6177507;23;20025;-73
2024/04/04 02:55:58;;;;;;;4.63;0.50;;;;;;;10.68;100.00;100050.78;6202266;23;20025;-74
2024/04/04 02:58:25;;;;;;;1.13;0.45;;;;;;;10.69;100.00;100049.47;6202214;23;20029;-74
2024/04/04 03:00:54;;;;;;;1.30;0.70;;;;;;;10.71;100.00;100044.09;6176956;23;20112;-74
2024/04/04 03:03:20;;;;;;;0.87;0.47;;;;;;;10.86;100.00;100050.81;6153218;23;20028;-73
2024/04/04 03:05:47;;;;;;;0.68;0.30;;;;;;;10.88;100.00;100045.38;6177672;23;20145;-74
2024/04/04 03:08:15;;;;;;;3.15;0.50;;;;;;;10.85;100.00;100057.63;6177870;23;20052;-74
2024/04/04 03:10:44;;;;;;;0.95;0.57;;;;;;;10.85;100.00;100046.53;6177424;23;20731;-74
2024/04/04 03:13:10;;;;;;;0.57;0.28;;;;;;;10.86;100.00;100050.81;6178219;23;20033;-74
2024/04/04 03:15:38;;;;;;;5.75;0.65;;;;;;;10.94;100.00;100043.13;6203422;23;20343;-74
2024/04/04 03:18:05;;;;;;;1.85;0.40;;;;;;;10.92;100.00;100046.44;6178073;23;20025;-74
2024/04/04 03:20:32;;;;;;;2.22;0.80;;;;;;;11.06;100.00;100038.53;6153326;23;20025;-74
2024/04/04 03:22:59;;;;;;;0.95;0.40;;;;;;;11.03;100.00;100041.72;6178302;23;20075;-73
2024/04/04 03:25:30;;;;;;;1.77;0.20;;;;;;;11.03;100.00;100044.50;6177799;23;20029;-73
2024/04/04 03:27:56;;;;;;;2.40;0.60;;;;;;;11.06;100.00;100048.91;6177199;23;20555;-73
2024/04/04 03:30:23;;;;;;;0.57;0.30;;;;;;;11.09;100.00;100048.50;6202791;23;20023;-73
2024/04/04 03:32:50;;;;;;;2.72;0.40;;;;;;;11.27;100.00;100051.97;6176739;23;20404;-72
2024/04/04 03:35:17;;;;;;;0.93;0.38;;;;;;;11.21;100.00;100053.56;6177376;23;20025;-73
2024/04/04 03:37:43;;;;;;;2.92;0.45;;;;;;;11.22;100.00;100052.25;6177644;23;20029;-72
2024/04/04 03:40:12;;;;;;;3.15;0.70;;;;;;;11.33;100.00;100051.75;6177882;23;20033;-73
2024/04/04 03:42:39;;;;;;;1.27;0.65;;;;;;;11.26;100.00;100049.78;6177448;23;20021;-72
2024/04/04 03:45:08;;;;;;;1.38;0.47;;;;;;;11.27;100.00;100045.69;6177379;23;20028;-72
2024/04/04 03:47:34;;;;;;;0.85;0.30;;;;;;;11.30;100.00;100050.84;6178147;23;20033;-74
2024/04/04 03:50:04;;;;;;;0.38;0.10;;;;;;;11.33;100.00;100041.38;6185825;23;20079;-74
2024/04/04 03:52:31;;;;;;;2.17;0.30;;;;;;;11.34;100.00;100042.81;6187334;23;20093;-73
2024/04/04 03:55:00;;;;;;;3.92;1.10;;;;;;;11.34;100.00;100040.03;6215269;23;20027;-73
2024/04/04 03:57:27;;;;;;;1.13;0.25;;;;;;;11.37;100.00;100030.59;6178224;23;20100;-73
2024/04/04 03:59:57;;;;;;;1.98;0.38;;;;;;;11.36;100.00;100033.94;6202655;23;20028;-73
2024/04/04 04:02:23;;;;;;;1.75;0.77;;;;;;;11.38;100.00;100028.53;6181501;23;20056;-73
2024/04/04 04:04:50;;;;;;;0.17;0.10;;;;;;;11.41;100.00;100030.88;6193053;23;20032;-72
2024/04/04 04:07:18;;;;;;;1.38;0.43;;;;;;;11.38;100.00;100022.97;6222337;23;20025;-73
2024/04/04 04:09:46;;;;;;;2.75;0.47;;;;;;;11.41;100.00;100032.94;6192417;23;20055;-73
2024/04/04 04:12:12;;;;;;;1.67;0.57;;;;;;;11.41;100.00;100032.94;6201663;23;20029;-73
2024/04/04 04:14:40;;;;;;;3.20;0.50;;;;;;;11.39;100.00;100027.94;6152038;23;20547;-73
2024/04/04 04:17:08;;;;;;;2.40;0.82;;;;;;;11.45;100.00;100027.69;6177699;23;20027;-73
2024/04/04 04:19:36;;;;;;;1.25;0.25;;;;;;;11.40;100.00;100031.47;6177678;23;20029;-74
2024/04/04 04:22:04;;;;;;;0.77;0.45;;;;;;;11.43;100.00;100033.09;6200820;23;20036;-74
2024/04/04 04:24:32;;;;;;;1.23;0.30;;;;;;;11.54;100.00;100027.00;6176215;23;20029;-74
2024/04/04 04:27:00;;;;;;;2.22;0.88;;;;;;;11.45;100.00;100022.16;6177235;23;20025;-73
2024/04/04 04:29:28;;;;;;;2.60;0.20;;;;;;;11.50;100.00;100023.16;6176475;23;20032;-74
2024/04/04 04:31:56;;;;;;;0.88;0.20;;;;;;;11.47;100.00;100027.13;6202262;23;20025;-74
2024/04/04 04:34:27;;;;;;;5.53;0.68;;;;;;;11.53;100.00;100028.31;6200736;23;20095;-74
2024/04/04 04:36:55;;;;;;;2.78;0.30;;;;;;;11.49;100.00;100016.88;6176648;23;20025;-73
2024/04/04 04:39:23;;;;;;;1.27;0.50;;;;;;;11.52;100.00;100020.56;6201013;23;20032;-74
2024/04/04 04:41:50;;;;;;;1.60;0.40;;;;;;;11.51;100.00;100017.06;6201977;23;20121;-74
2024/04/04 04:44:17;;;;;;;1.40;0.30;;;;;;;11.44;100.00;100012.31;6177251;23;20032;-75
2024/04/04 04:46:45;;;;;;;5.80;0.73;;;;;;;11.49;100.00;100016.88;6205640;23;20028;-75
2024/04/04 04:49:11;;;;;;;3.97;0.50;;;;;;;11.47;100.00;100013.22;6182870;23;20055;-76
2024/04/04 04:51:40;;;;;;;1.45;0.45;;;;;;;11.43;100.00;100016.44;6177179;23;20021;-73
2024/04/04 04:54:06;;;;;;;8.73;0.97;;;;;;;11.44;100.00;100022.72;6177095;23;20087;-72
2024/04/04 04:56:35;;;;;;;3.78;0.40;;;;;;;11.49;100.00;100018.94;6152653;23;20518;-73
2024/04/04 04:59:01;;;;;;;3.17;0.40;;;;;;;11.49;100.00;100027.28;6176684;23;20037;-73
2024/04/04 05:01:30;;;;;;;2.20;0.47;;;;;;;11.53;100.00;100022.78;6202594;23;20129;-73
2024/04/04 05:03:58;;;;;;;5.28;0.45;;;;;;;11.53;100.00;100022.03;6180262;23;20375;-72
2024/04/04 05:06:26;;;;;;;5.35;1.20;;;;;;;11.57;100.00;100025.88;6158626;23;20040;-72
2024/04/04 05:08:54;;;;;;;2.13;0.55;;;;;;;11.62;100.00;100024.13;6158742;23;20099;-72
2024/04/04 05:11:21;;;;;;;1.58;0.50;;;;;;;11.65;100.00;100033.34;6191126;23;20528;-73
2024/04/04 05:13:47;;;;;;;4.32;0.52;;;;;;;11.67;100.00;100031.47;6182208;23;20039;-73
2024/04/04 05:16:15;;;;;;;1.90;0.38;;;;;;;11.62;100.00;100019.31;6182412;23;20025;-73
2024/04/04 05:18:41;;;;;;;0.55;0.30;;;;;;;11.66;100.00;100013.31;6180529;23;20363;-73
2024/04/04 05:21:09;;;;;;;2.65;0.43;;;;;;;11.71;100.00;100015.09;6178995;23;20027;-73
2024/04/04 05:23:35;;;;;;;0.60;0.10;;;;;;;11.73;100.00;100017.31;6180533;23;20025;-72
2024/04/04 05:26:04;;;;;;;2.85;0.50;;;;;;;11.76;100.00;100010.59;6180066;23;20130;-72
2024/04/04 05:28:31;;;;;;;2.17;0.63;;;;;;;11.82;100.00;100016.63;6180759;23;20084;-72
2024/04/04 05:31:00;;;;;;;2.00;0.38;;;;;;;11.93;100.00;100024.44;6180503;23;20025;-72
2024/04/04 05:33:26;;;;;;;1.27;0.20;;;;;;;11.95;100.00;100016.25;6180768;23;20023;-73
2024/04/04 05:35:54;;;;;;;5.72;0.38;;;;;;;11.99;100.00;100019.38;6182206;23;20032;-72
2024/04/04 05:38:21;;;;;;;2.17;0.38;;;;;;;11.94;100.00;100014.06;6182239;23;20024;-72
2024/04/04 05:40:48;;;;;;;2.95;0.35;;;;;;;11.90;100.00;100014.50;6182653;23;20100;-72
2024/04/04 05:43:16;;;;;;;3.15;0.40;;;;;;;11.92;100.00;100009.09;6207324;23;20051;-72
2024/04/04 05:45:44;;;;;;;3.80;0.40;;;;;;;11.83;100.00;100004.91;6182024;23;20481;-72
2024/04/04 05:48:11;;;;;;;1.25;0.32;;;;;;;11.78;100.00;99999.63;6182557;23;20251;-72
2024/04/04 05:50:38;;;;;;;2.03;0.63;;;;;;;11.86;100.00;100000.25;6181848;23;20106;-72
2024/04/04 05:53:05;;;;;;;2.00;0.40;;;;;;;11.89;100.00;99987.25;6183087;23;20021;-73
2024/04/04 05:55:33;;;;;;;2.10;0.40;;;;;;;11.87;100.00;99987.84;6158181;23;20090;-73
2024/04/04 05:58:00;;;;;;;2.00;0.40;;;;;;;11.95;100.00;99990.50;6182677;23;20020;-72
2024/04/04 06:00:29;;;;;;;6.05;0.73;;;;;;;12.07;100.00;99976.78;6181420;23;20028;-73
2024/04/04 06:02:55;;;;;;;1.63;0.82;;;;;;;12.05;100.00;99980.88;6182294;23;20012;-75
2024/04/04 06:05:22;;;;;;;4.80;0.38;;;;;;;12.11;100.00;99977.09;6181681;23;20108;-74
2024/04/04 06:07:51;;;;;;;0.77;0.22;;;;;;;12.05;100.00;99977.38;6182925;23;20038;-73
2024/04/04 06:10:19;;;;;;;5.18;0.95;;;;;;;12.23;100.00;99983.56;6189669;23;20095;-72
2024/04/04 06:12:45;;;;;;;1.88;0.65;;;;;;;12.37;100.00;99981.09;6208160;23;20031;-72
2024/04/04 06:15:14;;;;;;;3.60;0.40;;;;;;;12.50;100.00;99977.16;6200033;23;20048;-74
2024/04/04 06:17:41;;;;;;;1.67;0.68;;;;;;;12.50;100.00;99971.59;6195679;23;20031;-73
2024/04/04 06:20:09;;;;;;;1.50;0.40;;;;;;;12.46;100.00;99967.22;6208397;23;20628;-72
2024/04/04 06:22:35;;;;;;;0.85;0.45;;;;;;;12.52;100.00;99960.63;6207563;23;20027;-75
2024/04/04 06:25:03;;;;;;;2.80;0.55;;;;;;;12.73;100.00;99976.72;6189940;23;20024;-72
2024/04/04 06:27:29;;;;;;;1.15;0.40;;;;;;;12.74;100.00;99975.41;6194104;23;20052;-73
2024/04/04 06:29:57;;;;;;;2.05;0.52;;;;;;;12.84;100.00;99974.09;6216230;23;20028;-73
2024/04/04 06:32:23;;;;;;;1.90;0.75;;;;;;;13.19;100.00;99976.53;6182820;23;20033;-73
2024/04/04 06:34:52;;;;;;;8.30;1.23;;;;;;;13.36;100.00;99972.88;6183113;23;20021;-74
2024/04/04 06:37:18;;;;;;;2.50;0.50;;;;;;;13.18;100.00;99975.09;6182867;23;20075;-75
2024/04/04 06:39:47;;;;;;;2.65;0.63;;;;;;;13.21;100.00;99973.91;6183830;23;20491;-75
2024/04/04 06:42:16;;;;;;;3.40;0.50;;;;;;;13.22;100.00;99986.50;6183884;23;20025;-74
2024/04/04 06:44:43;;;;;;;2.85;0.68;;;;;;;13.20;100.00;99975.19;6182710;23;20020;-74
2024/04/04 06:47:10;;;;;;;2.33;0.40;;;;;;;13.27;100.00;99971.56;6182650;23;20024;-74
2024/04/04 06:49:38;;;;;;;2.95;0.50;;;;;;;13.37;100.00;99979.16;6183230;23;20024;-74
2024/04/04 06:52:06;;;;;;;1.58;0.20;;;;;;;13.39;100.00;99982.81;6183161;23;20028;-74
2024/04/04 06:54:35;;;;;;;3.37;0.43;;;;;;;13.28;100.00;99986.22;6208891;23;20123;-75
2024/04/04 06:57:02;;;;;;;5.13;1.27;;;;;;;13.27;100.00;99985.47;6183481;23;20032;-75
2024/04/04 06:59:29;;;;;;;3.97;0.68;;;;;;;13.19;100.00;99987.69;6158375;23;20355;-75
2024/04/04 07:01:56;;;;;;;3.85;0.22;;;;;;;13.03;100.00;99992.09;6158836;23;20029;-73
2024/04/04 07:04:23;;;;;;;2.78;0.30;;;;;;;13.04;100.00;99982.44;6181751;23;20028;-74
2024/04/04 07:06:52;;;;;;;2.38;0.88;;;;;;;13.09;100.00;99998.84;6208045;23;20032;-74
2024/04/04 07:09:21;;;;;;;1.05;0.50;;;;;;;13.06;100.00;99996.50;6183209;23;20028;-73
2024/04/04 07:11:48;;;;;;;4.78;0.77;;;;;;;12.98;100.00;99991.09;6183542;23;20021;-75
2024/04/04 07:14:16;;;;;;;3.75;0.75;;;;;;;13.13;100.00;99990.78;6183795;23;20108;-74
2024/04/04 07:16:43;;;;;;;1.02;0.30;;;;;;;13.13;100.00;99990.78;6182763;23;20051;-76
2024/04/04 07:19:11;;;;;;;3.33;0.65;;;;;;;13.37;100.00;99990.31;6183097;23;20385;-73
2024/04/04 07:21:37;;;;;;;3.55;0.55;;;;;;;13.31;100.00;99996.91;6181817;23;20028;-74
2024/04/04 07:24:05;;;;;;;2.42;0.25;;;;;;;13.42;100.00;100001.13;6183735;23;20024;-74
2024/04/04 07:26:33;;;;;;;3.83;0.30;;;;;;;13.38;100.00;100000.88;6182996;23;20031;-75
2024/04/04 07:29:01;;;;;;;0.98;0.43;;;;;;;13.29;100.00;100005.13;6183146;23;20024;-75
2024/04/04 07:31:27;;;;;;;1.10;0.35;;;;;;;13.24;100.00;99986.63;6180996;23;20024;-75
2024/04/04 07:33:54;;;;;;;1.98;0.63;;;;;;;13.30;100.00;100011.44;6182666;23;20031;-74
2024/04/04 07:36:21;;;;;;;6.88;0.95;;;;;;;13.19;100.00;100004.41;6206738;23;20032;-74
2024/04/04 07:38:48;;;;;;;4.03;0.70;;;;;;;13.11;100.00;100010.13;6182735;23;20599;-75
2024/04/04 07:41:16;;;;;;;3.30;0.82;;;;;;;13.06;100.00;100008.38;6183160;23;20028;-74
2024/04/04 07:43:47;;;;;;;2.47;0.50;;;;;;;13.10;100.00;100019.06;6182010;23;20458;-73
2024/04/04 07:46:13;;;;;;;2.42;0.73;;;;;;;13.06;100.00;100024.34;6182135;23;20024;-73
2024/04/04 07:48:42;;;;;;;1.95;0.80;;;;;;;13.06;100.00;100032.72;6182495;23;20119;-73
2024/04/04 07:51:09;;;;;;;4.28;0.85;;;;;;;12.94;100.00;100027.00;6182344;23;20032;-74
2024/04/04 07:53:39;;;;;;;2.75;0.75;;;;;;;12.84;100.00;100032.56;6181703;23;20054;-74
2024/04/04 07:56:06;;;;;;;2.28;0.35;;;;;;;12.93;100.00;100033.13;6181200;23;20028;-73
2024/04/04 07:58:33;;;;;;;2.15;0.40;;;;;;;12.83;100.00;100028.31;6181611;23;20031;-74
2024/04/04 08:01:02;;;;;;;3.08;0.70;;;;;;;12.97;100.00;100025.81;6182460;23;20083;-74
2024/04/04 08:03:31;;;;;;;5.67;1.37;;;;;;;12.82;100.00;100024.06;6181080;23;20031;-74
2024/04/04 08:05:58;;;;;;;5.78;1.05;;;;;;;12.87;100.00;100025.81;6180340;23;20087;-72
2024/04/04 08:08:25;;;;;;;2.63;0.65;;;;;;;13.09;100.00;100037.09;6181879;23;20024;-73
2024/04/04 08:10:52;;;;;;;1.63;0.45;;;;;;;13.00;100.00;100038.56;6182403;23;20091;-73
2024/04/04 08:13:21;;;;;;;3.45;0.80;;;;;;;12.91;100.00;100030.94;6207562;23;20020;-74
2024/04/04 08:15:48;;;;;;;3.50;0.52;;;;;;;12.73;100.00;100030.34;6182514;23;20025;-74
2024/04/04 08:18:18;;;;;;;3.10;0.70;;;;;;;12.77;100.00;100029.91;6182096;23;20647;-74
2024/04/04 08:20:44;;;;;;;6.32;1.15;;;;;;;12.64;100.00;100037.38;6181871;23;20498;-74
2024/04/04 08:23:12;;;;;;;3.92;0.65;;;;;;;12.66;100.00;100031.22;6156427;23;20024;-74
2024/04/04 08:25:38;;;;;;;2.30;1.02;;;;;;;12.68;100.00;100029.34;6181875;23;20032;-74
2024/04/04 08:28:06;;;;;;;4.63;0.82;;;;;;;12.65;100.00;100036.03;6181589;23;20021;-74
2024/04/04 08:30:33;;;;;;;4.72;0.90;;;;;;;12.79;100.00;100044.00;6181598;23;20106;-75
2024/04/04 08:33:00;;;;;;;4.72;0.57;;;;;;;12.70;100.00;100035.03;6181851;23;20024;-74
2024/04/04 08:35:29;;;;;;;3.47;1.05;;;;;;;12.79;100.00;100047.50;6183982;23;20079;-74
2024/04/04 08:37:57;;;;;;;7.32;1.10;;;;;;;12.64;100.00;100031.09;6183627;23;20039;-75
2024/04/04 08:40:24;;;;;;;3.22;1.08;;;;;;;12.69;100.00;100038.41;6183119;23;20464;-75
2024/04/04 08:42:52;;;;;;;9.70;1.00;;;;;;;12.64;100.00;100037.38;6183875;23;20111;-74
2024/04/04 08:45:19;;;;;;;6.60;0.30;;;;;;;12.70;100.00;100040.59;6183327;23;20071;-74
2024/04/04 08:47:47;;;;;;;5.13;0.73;;;;;;;12.64;100.00;100048.50;6186255;23;20028;-76
2024/04/04 08:50:14;;;;;;;3.85;0.57;;;;;;;12.71;100.00;100041.34;6163253;23;20463;-75
2024/04/04 08:52:43;;;;;;;4.82;0.90;;;;;;;12.69;100.00;100032.84;6191258;23;20457;-73
2024/04/04 08:55:09;;;;;;;4.00;0.38;;;;;;;12.68;100.00;100031.34;6192467;23;20029;-76
2024/04/04 08:57:39;;;;;;;4.57;0.80;;;;;;;12.67;100.00;100036.19;6193477;23;20029;-73
2024/04/04 09:00:11;;;;;;;3.55;0.35;;;;;;;12.75;100.00;100029.75;6186955;23;20025;-73
2024/04/04 09:02:41;;;;;;;6.63;0.95;;;;;;;12.74;100.00;100022.75;6208222;23;20025;-74
2024/04/04 09:05:08;;;;;;;7.53;0.57;;;;;;;12.78;100.00;100023.75;6206897;23;20024;-74
2024/04/04 09:07:36;;;;;;;4.50;1.42;;;;;;;12.73;100.00;100029.59;6182830;23;20020;-73
2024/04/04 09:10:05;;;;;;;3.20;0.50;;;;;;;12.70;100.00;100018.31;6183112;23;20044;-73
2024/04/04 09:12:33;;;;;;;8.32;0.60;;;;;;;12.80;100.00;100021.13;6182911;23;20031;-73
2024/04/04 09:15:00;;;;;;;2.15;0.75;;;;;;;12.68;100.00;100020.22;6182492;23;20031;-73
2024/04/04 09:17:28;;;;;;;3.92;0.57;;;;;;;12.80;100.00;100025.94;6182672;23;20035;-73
2024/04/04 09:19:55;;;;;;;2.63;0.52;;;;;;;12.66;100.00;100028.44;6182408;23;20032;-74
2024/04/04 09:22:25;;;;;;;4.80;0.70;;;;;;;12.75;100.00;100040.91;6181571;23;20097;-74
2024/04/04 09:24:56;;;;;;;1.20;0.50;;;;;;;12.88;100.00;100049.56;6182236;23;20074;-74
2024/04/04 09:27:25;;;;;;;4.75;1.05;;;;;;;12.76;100.00;100054.25;6182394;23;20027;-74
2024/04/04 09:29:52;;;;;;;2.65;0.65;;;;;;;12.84;100.00;100057.63;6157541;23;20103;-74
2024/04/04 09:32:21;;;;;;;3.05;1.02;;;;;;;12.95;100.00;100063.91;6183605;23;20029;-74
2024/04/04 09:34:49;;;;;;;9.93;0.80;;;;;;;12.88;100.00;100069.06;6184568;23;20031;-74
2024/04/04 09:37:19;;;;;;;1.88;0.40;;;;;;;12.96;100.00;100071.69;6195935;23;20072;-74
2024/04/04 09:39:46;;;;;;;5.40;1.02;;;;;;;13.02;100.00;100072.13;6173535;23;20035;-73
2024/04/04 09:42:15;;;;;;;2.25;0.35;;;;;;;13.07;100.00;100071.09;6185433;23;20467;-74
2024/04/04 09:44:43;;;;;;;1.05;0.43;;;;;;;13.06;100.00;100071.69;6184931;23;20055;-73
2024/04/04 09:47:13;;;;;;;1.50;0.38;;;;;;;13.12;100.00;100067.28;6184658;23;20024;-74
2024/04/04 09:49:40;;;;;;;3.95;0.70;;;;;;;13.05;100.00;100067.44;6188729;23;20052;-74
2024/04/04 09:52:09;;;;;;;6.20;0.80;;;;;;;13.03;100.00;100073.59;6206110;23;20112;-75
2024/04/04 09:54:36;;;;;;;1.60;0.30;;;;;;;12.98;100.00;100083.00;6205349;23;20020;-75
2024/04/04 09:57:04;;;;;;;3.05;1.35;;;;;;;12.95;100.00;100067.44;6198811;23;20025;-74
2024/04/04 09:59:31;;;;;;;5.53;0.85;;;;;;;12.99;100.00;100078.16;6208615;23;20035;-73
2024/04/04 10:02:06;;;;;;;2.15;0.65;;;;;;;12.99;100.00;100086.50;6184028;23;20322;-74
2024/04/04 10:04:33;;;;;;;5.68;1.15;;;;;;;13.08;100.00;100094.88;6183259;23;20102;-73
2024/04/04 10:07:01;;;;;;;1.77;0.57;;;;;;;13.11;100.00;100087.38;6182716;23;20632;-73
2024/04/04 10:09:36;;;;;;;7.28;0.77;;;;;;;13.21;100.00;100096.47;6183462;23;20031;-74
2024/04/04 10:12:09;;;;;;;1.75;0.63;;;;;;;13.17;100.00;100090.59;6182998;23;20024;-74
2024/04/04 10:14:36;;;;;;;2.42;0.70;;;;;;;13.17;100.00;100096.16;6182702;23;20436;-74
2024/04/04 10:17:06;;;;;;;2.65;0.77;;;;;;;13.21;100.00;100099.25;6183036;23;20475;-75
2024/04/04 10:19:36;;;;;;;7.32;1.27;;;;;;;13.38;100.00;100089.28;6183963;23;20509;-75
2024/04/04 10:22:14;;;;;;;2.95;0.63;;;;;;;13.30;100.00;100104.13;6157691;23;20032;-74
2024/04/04 10:24:41;;;;;;;5.28;0.65;;;;;;;13.46;100.00;100103.81;6183786;23;20107;-75
2024/04/04 10:27:12;;;;;;;8.52;1.73;;;;;;;13.54;100.00;100096.03;6183390;23;20688;-75
2024/04/04 10:29:40;;;;;;;4.40;0.63;;;;;;;13.55;100.00;100092.66;6185396;23;20136;-75
2024/04/04 10:32:10;;;;;;;1.85;0.50;;;;;;;13.67;100.00;100095.56;6214165;23;20047;-72
2024/04/04 10:34:37;;;;;;;1.30;0.35;;;;;;;13.72;100.00;100080.59;6211351;23;20032;-72
2024/04/04 10:37:07;;;;;;;3.65;0.73;;;;;;;13.69;100.00;100084.56;6186598;23;20032;-71
2024/04/04 10:39:34;;;;;;;4.53;0.88;;;;;;;13.55;100.00;100087.09;6210862;23;20025;-72
2024/04/04 10:42:01;;;;;;;5.32;0.82;;;;;;;13.50;100.00;100081.78;6160812;23;20019;-72
2024/04/04 10:44:27;;;;;;;1.13;0.88;;;;;;;13.60;100.00;100090.91;6212737;23;20004;-72
2024/04/04 10:46:57;;;;;;;4.20;0.73;;;;;;;13.51;100.00;100088.84;6189100;23;20035;-73
2024/04/04 10:49:28;;;;;;;1.33;0.50;;;;;;;13.54;100.00;100085.59;6183879;23;20024;-74
2024/04/04 10:51:58;;;;;;;3.92;0.73;;;;;;;13.44;100.00;100076.53;6184105;23;20024;-73
2024/04/04 10:54:26;;;;;;;2.05;0.43;;;;;;;13.33;100.00;100075.09;6182853;23;20028;-74
2024/04/04 10:56:54;;;;;;;1.05;0.30;;;;;;;13.42;100.00;100073.59;6181970;23;20033;-73
2024/04/04 10:59:21;;;;;;;3.80;0.60;;;;;;;13.54;100.00;100070.94;6183435;23;20035;-72
2024/04/04 11:01:49;;;;;;;2.25;0.45;;;;;;;13.47;100.00;100078.13;6183006;23;20034;-74
2024/04/04 11:04:18;;;;;;;8.63;0.82;;;;;;;13.43;100.00;100077.88;6182946;23;20076;-74
2024/04/04 11:06:48;;;;;;;3.60;0.80;;;;;;;13.39;100.00;100062.91;6181905;23;20032;-73
2024/04/04 11:09:19;;;;;;;4.15;0.50;;;;;;;13.55;100.00;100083.56;6183200;23;20029;-73
2024/04/04 11:11:49;;;;;;;2.88;0.32;;;;;;;13.38;100.00;100081.69;6182239;23;20577;-74
2024/04/04 11:14:17;;;;;;;2.05;0.50;;;;;;;13.40;100.00;100067.91;6182469;23;20047;-74
2024/04/04 11:16:45;;;;;;;2.10;0.38;;;;;;;13.34;100.00;100065.41;6182781;23;20032;-74
2024/04/04 11:19:13;;;;;;;4.47;0.45;;;;;;;13.34;100.00;100067.47;6182969;23;20074;-74
2024/04/04 11:21:41;;;;;;;4.20;1.17;;;;;;;13.20;100.00;100060.84;6180507;23;20059;-74